createdAt,value
2024-03-10T00:00:58.493Z,69.00
2024-03-10T00:03:52.813Z,74.27
2024-03-10T00:06:27.102Z,68.57
2024-03-10T00:09:01.461Z,73.70
2024-03-10T00:11:35.510Z,72.87
2024-03-10T00:14:10.870Z,72.87
2024-03-10T00:16:44.965Z,71.10
2024-03-10T00:19:19.596Z,72.33
2024-03-10T00:21:55.533Z,72.27
2024-03-10T00:24:29.776Z,69.83
2024-03-10T00:27:04.544Z,65.13
2024-03-10T00:29:40.003Z,80.90
2024-03-10T00:32:14.307Z,72.20
2024-03-10T00:34:49.475Z,66.93
2024-03-10T00:37:23.974Z,68.77
2024-03-10T00:39:58.442Z,69.53
2024-03-10T00:42:32.852Z,68.37
2024-03-10T00:45:10.660Z,66.50
2024-03-10T00:47:46.508Z,70.43
2024-03-10T00:50:21.641Z,67.13
2024-03-10T00:52:57.411Z,67.23
2024-03-10T00:55:31.931Z,69.07
2024-03-10T00:58:07.790Z,65.83
2024-03-10T01:00:42.689Z,73.90
2024-03-10T01:03:18.431Z,71.43
2024-03-10T01:05:53.990Z,77.17
2024-03-10T01:08:28.650Z,78.73
2024-03-10T01:11:03.454Z,75.60
2024-03-10T01:13:37.898Z,80.60
2024-03-10T01:16:12.816Z,74.10
2024-03-10T01:18:46.522Z,77.10
2024-03-10T01:21:21.181Z,81.03
2024-03-10T01:23:55.151Z,83.03
2024-03-10T01:26:29.273Z,80.57
2024-03-10T01:29:04.258Z,86.67
2024-03-10T01:31:38.660Z,82.73
2024-03-10T01:34:12.581Z,88.40
2024-03-10T01:36:47.019Z,84.13
2024-03-10T01:39:22.169Z,83.20
2024-03-10T01:41:58.881Z,80.70
2024-03-10T01:44:33.781Z,80.53
2024-03-10T01:47:09.006Z,77.63
2024-03-10T01:49:44.678Z,75.57
2024-03-10T01:52:19.513Z,76.00
2024-03-10T01:54:56.546Z,79.27
2024-03-10T01:57:32.003Z,78.77
2024-03-10T02:00:07.364Z,77.67
2024-03-10T02:02:46.115Z,75.77
2024-03-10T02:05:24.467Z,79.70
2024-03-10T02:07:58.956Z,72.60
2024-03-10T02:10:33.519Z,73.53
2024-03-10T02:13:10.551Z,72.97
2024-03-10T02:15:45.449Z,72.43
2024-03-10T02:18:20.134Z,73.80
2024-03-10T02:20:54.227Z,74.40
2024-03-10T02:23:33.371Z,72.47
2024-03-10T02:26:08.038Z,66.90
2024-03-10T02:28:59.132Z,72.33
2024-03-10T02:31:50.986Z,70.97
2024-03-10T02:34:58.388Z,79.63
2024-03-10T02:37:50.041Z,74.53
2024-03-10T02:40:42.169Z,76.87
2024-03-10T02:43:33.793Z,79.17
2024-03-10T02:46:25.216Z,77.70
2024-03-10T02:49:00.107Z,83.63
2024-03-10T02:51:34.339Z,75.83
2024-03-10T02:54:08.759Z,78.53
2024-03-10T02:56:43.759Z,81.97
2024-03-10T02:59:18.145Z,81.03
2024-03-10T03:01:52.800Z,81.83
2024-03-10T03:04:28.065Z,78.77
2024-03-10T03:07:03.049Z,80.47
2024-03-10T03:09:37.192Z,81.97
2024-03-10T03:12:12.109Z,71.40
2024-03-10T03:14:46.809Z,79.47
2024-03-10T03:17:20.771Z,79.53
2024-03-10T03:19:55.639Z,83.17
2024-03-10T03:22:30.525Z,80.37
2024-03-10T03:25:05.616Z,77.30
2024-03-10T03:27:39.683Z,75.87
2024-03-10T03:30:17.389Z,79.67
2024-03-10T03:32:52.051Z,77.70
2024-03-10T03:35:27.625Z,74.20
2024-03-10T03:38:04.533Z,78.00
2024-03-10T03:40:41.008Z,75.53
2024-03-10T03:43:15.421Z,79.93
2024-03-10T03:45:51.206Z,83.53
2024-03-10T03:48:26.398Z,79.80
2024-03-10T03:51:00.931Z,83.77
2024-03-10T03:53:35.588Z,75.57
2024-03-10T03:56:11.436Z,84.10
2024-03-10T03:58:45.996Z,81.40
2024-03-10T04:01:20.154Z,78.80
2024-03-10T04:03:54.469Z,80.90
2024-03-10T04:06:29.879Z,77.10
2024-03-10T04:09:04.440Z,72.47
2024-03-10T04:11:40.201Z,76.17
2024-03-10T04:14:15.311Z,74.70
2024-03-10T04:16:50.103Z,75.93
2024-03-10T04:19:24.485Z,81.07
2024-03-10T04:22:00.196Z,81.23
2024-03-10T04:24:35.494Z,81.43
2024-03-10T04:27:10.479Z,81.23
2024-03-10T04:29:45.045Z,76.10
2024-03-10T04:32:19.201Z,83.87
2024-03-10T04:34:55.507Z,76.07
2024-03-10T04:37:29.792Z,75.33
2024-03-10T04:40:07.554Z,80.13
2024-03-10T04:42:41.854Z,78.67
2024-03-10T04:45:16.770Z,79.90
2024-03-10T04:47:51.336Z,80.30
2024-03-10T04:50:25.868Z,80.67
2024-03-10T04:53:00.262Z,78.33
2024-03-10T04:55:34.437Z,79.30
2024-03-10T04:58:09.443Z,82.10
2024-03-10T05:00:43.564Z,79.23
2024-03-10T05:03:18.006Z,76.47
2024-03-10T05:05:52.781Z,76.53
2024-03-10T05:08:26.890Z,78.25
2024-03-10T05:11:01.408Z,84.90
2024-03-10T05:13:38.466Z,77.20
2024-03-10T05:16:14.039Z,78.23
2024-03-10T05:18:47.793Z,76.43
2024-03-10T05:21:21.667Z,84.40
2024-03-10T05:23:55.958Z,77.53
2024-03-10T05:26:31.790Z,88.67
2024-03-10T05:29:06.461Z,76.90
2024-03-10T05:31:39.873Z,82.03
2024-03-10T05:34:13.870Z,83.37
2024-03-10T05:36:48.075Z,81.20
2024-03-10T05:39:23.271Z,78.03
2024-03-10T05:41:57.013Z,84.07
2024-03-10T05:44:31.705Z,84.00
2024-03-10T05:47:06.552Z,75.63
2024-03-10T05:49:40.596Z,82.57
2024-03-10T05:52:14.685Z,80.23
2024-03-10T05:54:49.314Z,83.57
2024-03-10T05:57:23.318Z,83.43
2024-03-10T05:59:57.858Z,86.83
2024-03-10T06:02:32.223Z,77.77
2024-03-10T06:05:06.747Z,78.27
2024-03-10T06:07:40.713Z,83.13
2024-03-10T06:10:16.526Z,96.93
2024-03-10T06:12:50.701Z,86.33
2024-03-10T06:15:25.079Z,83.23
2024-03-10T06:18:05.803Z,87.27
2024-03-10T06:20:57.469Z,82.00
2024-03-10T06:23:49.504Z,87.87
2024-03-10T06:26:24.343Z,87.25
2024-03-10T06:28:58.696Z,90.97
2024-03-10T06:31:33.448Z,87.37
2024-03-10T06:34:07.266Z,83.80
2024-03-10T06:36:41.671Z,89.33
2024-03-10T06:39:20.557Z,87.83
2024-03-10T06:41:54.808Z,84.33
2024-03-10T06:44:29.362Z,83.20
2024-03-10T06:47:04.745Z,75.60
2024-03-10T06:49:38.905Z,81.93
2024-03-10T06:52:12.932Z,76.53
2024-03-10T06:54:47.143Z,73.00
2024-03-10T06:57:21.936Z,75.00
2024-03-10T06:59:56.590Z,76.60
2024-03-10T07:02:31.933Z,76.23
2024-03-10T07:05:06.244Z,78.77
2024-03-10T07:07:40.593Z,70.77
2024-03-10T07:10:15.815Z,69.90
2024-03-10T07:12:50.012Z,75.97
2024-03-10T07:15:23.976Z,74.43
2024-03-10T07:17:57.513Z,74.60
2024-03-10T07:20:32.246Z,68.20
2024-03-10T07:23:07.311Z,69.17
2024-03-10T07:25:41.823Z,73.40
2024-03-10T07:28:16.661Z,66.27
2024-03-10T07:30:51.653Z,66.40
2024-03-10T07:33:26.213Z,67.63
2024-03-10T07:36:00.778Z,68.80
2024-03-10T07:38:35.282Z,66.80
2024-03-10T07:41:11.007Z,61.23
2024-03-10T07:43:45.169Z,68.53
2024-03-10T07:46:19.641Z,63.00
2024-03-10T07:48:53.251Z,54.60
2024-03-10T07:51:28.574Z,62.50
2024-03-10T07:54:03.842Z,55.53
2024-03-10T07:56:37.808Z,55.97
2024-03-10T07:59:12.752Z,57.40
2024-03-10T08:01:46.845Z,60.60
2024-03-10T08:04:21.482Z,61.57
2024-03-10T08:06:55.893Z,55.57
2024-03-10T08:09:30.339Z,58.87
2024-03-10T08:12:05.434Z,58.10
2024-03-10T08:14:40.682Z,49.30
2024-03-10T08:17:15.042Z,47.90
2024-03-10T08:19:49.519Z,46.47
2024-03-10T08:22:23.825Z,47.00
2024-03-10T08:24:58.053Z,47.83
2024-03-10T08:27:32.761Z,44.10
2024-03-10T08:30:11.246Z,44.87
2024-03-10T08:32:46.067Z,43.73
2024-03-10T08:35:21.951Z,43.53
2024-03-10T08:37:56.170Z,45.77
2024-03-10T08:40:31.241Z,38.17
2024-03-10T08:43:05.655Z,38.70
2024-03-10T08:45:40.194Z,33.93
2024-03-10T08:48:15.008Z,32.07
2024-03-10T08:50:51.881Z,28.63
2024-03-10T08:53:27.470Z,29.73
2024-03-10T08:56:03.105Z,33.03
2024-03-10T08:58:37.060Z,31.27
2024-03-10T09:01:12.768Z,31.57
2024-03-10T09:03:48.629Z,31.83
2024-03-10T09:06:26.147Z,29.80
2024-03-10T09:09:00.636Z,31.10
2024-03-10T09:11:35.096Z,33.77
2024-03-10T09:14:09.718Z,31.80
2024-03-10T09:16:45.059Z,31.23
2024-03-10T09:19:18.972Z,31.20
2024-03-10T09:21:53.552Z,29.03
2024-03-10T09:24:28.207Z,31.70
2024-03-10T09:27:02.627Z,30.07
2024-03-10T09:29:37.541Z,31.43
2024-03-10T09:32:17.492Z,24.97
2024-03-10T09:34:52.758Z,27.33
2024-03-10T09:37:29.981Z,25.77
2024-03-10T09:40:07.099Z,23.93
2024-03-10T09:42:44.200Z,24.43
2024-03-10T09:45:25.180Z,23.07
2024-03-10T09:48:02.857Z,26.80
2024-03-10T09:50:38.269Z,27.33
2024-03-10T09:53:14.547Z,26.23
2024-03-10T09:55:50.617Z,25.63
2024-03-10T09:58:39.652Z,22.50
2024-03-10T10:01:19.926Z,25.47
2024-03-10T10:03:54.321Z,22.83
2024-03-10T10:06:33.043Z,25.10
2024-03-10T10:09:11.787Z,24.23
2024-03-10T10:11:47.860Z,24.67
2024-03-10T10:14:24.802Z,25.53
2024-03-10T10:17:00.554Z,25.23
2024-03-10T10:19:35.727Z,20.00
2024-03-10T10:22:12.796Z,16.53
2024-03-10T10:24:47.339Z,19.43
2024-03-10T10:27:21.544Z,16.20
2024-03-10T10:29:55.763Z,16.63
2024-03-10T10:32:30.603Z,15.50
2024-03-10T10:35:09.102Z,17.77
2024-03-10T10:37:48.212Z,16.40
2024-03-10T10:40:24.114Z,16.63
2024-03-10T10:43:04.879Z,16.70
2024-03-10T10:45:40.166Z,18.90
2024-03-10T10:48:15.091Z,17.23
2024-03-10T10:50:50.173Z,20.57
2024-03-10T10:53:25.333Z,18.37
2024-03-10T10:56:00.505Z,16.80
2024-03-10T10:58:36.606Z,16.87
2024-03-10T11:01:11.168Z,17.57
2024-03-10T11:03:47.878Z,16.73
2024-03-10T11:06:35.176Z,13.70
2024-03-10T11:09:16.138Z,16.50
2024-03-10T11:11:53.532Z,15.70
2024-03-10T11:14:31.169Z,16.20
2024-03-10T11:17:18.864Z,14.67
2024-03-10T11:19:54.625Z,16.57
2024-03-10T11:22:31.978Z,16.60
2024-03-10T11:25:12.979Z,13.17
2024-03-10T11:27:48.154Z,11.93
2024-03-10T11:30:57.753Z,14.17
2024-03-10T11:33:32.599Z,13.80
2024-03-10T11:36:08.015Z,12.03
2024-03-10T11:38:42.606Z,18.80
2024-03-10T11:41:17.407Z,15.97
2024-03-10T11:43:52.007Z,16.13
2024-03-10T11:46:27.771Z,34.03
2024-03-10T11:49:03.461Z,13.40
2024-03-10T11:51:39.493Z,16.07
2024-03-10T11:54:16.550Z,14.43
2024-03-10T11:56:54.970Z,16.37
2024-03-10T11:59:29.678Z,23.33
2024-03-10T12:02:05.261Z,21.07
2024-03-10T12:04:41.378Z,18.43
2024-03-10T12:07:15.944Z,12.90
2024-03-10T12:09:56.589Z,14.20
2024-03-10T12:12:35.725Z,14.90
2024-03-10T12:15:20.450Z,15.40
2024-03-10T12:17:56.371Z,17.27
2024-03-10T12:20:32.282Z,132.83
2024-03-10T12:23:07.906Z,18.67
2024-03-10T12:25:46.619Z,16.93
2024-03-10T12:28:21.896Z,13.23
2024-03-10T12:31:02.384Z,13.40
2024-03-10T12:33:36.800Z,14.27
2024-03-10T12:36:14.341Z,16.23
2024-03-10T12:38:49.327Z,17.17
2024-03-10T12:41:25.462Z,14.00
2024-03-10T12:44:01.414Z,14.37
2024-03-10T12:46:36.196Z,14.77
2024-03-10T12:49:10.421Z,15.40
2024-03-10T12:51:45.013Z,12.30
2024-03-10T12:54:19.328Z,14.50
2024-03-10T12:56:53.169Z,15.83
2024-03-10T12:59:28.106Z,15.73
2024-03-10T13:02:03.294Z,15.40
2024-03-10T13:04:37.708Z,14.97
2024-03-10T13:07:11.962Z,13.43
2024-03-10T13:09:45.712Z,13.37
2024-03-10T13:12:20.630Z,12.37
2024-03-10T13:14:55.686Z,12.90
2024-03-10T13:17:30.635Z,12.37
2024-03-10T13:20:10.802Z,13.33
2024-03-10T13:22:45.482Z,12.67
2024-03-10T13:25:20.471Z,12.73
2024-03-10T13:27:54.584Z,12.87
2024-03-10T13:30:29.800Z,11.07
2024-03-10T13:33:04.266Z,10.93
2024-03-10T13:35:38.761Z,12.90
2024-03-10T13:38:13.254Z,11.80
2024-03-10T13:40:50.327Z,11.40
2024-03-10T13:43:24.849Z,13.20
2024-03-10T13:45:59.133Z,10.93
2024-03-10T13:48:35.293Z,11.63
2024-03-10T13:51:10.415Z,11.00
2024-03-10T13:53:44.690Z,12.53
2024-03-10T13:56:19.545Z,10.70
2024-03-10T13:58:53.335Z,37.63
2024-03-10T14:01:27.807Z,12.13
2024-03-10T14:04:03.497Z,27.83
2024-03-10T14:06:39.180Z,11.13
2024-03-10T14:09:15.610Z,12.33
2024-03-10T14:11:51.101Z,9.87
2024-03-10T14:14:26.255Z,11.20
2024-03-10T14:17:01.057Z,11.13
2024-03-10T14:19:35.096Z,13.87
2024-03-10T14:22:10.026Z,9.70
2024-03-10T14:24:44.548Z,9.27
2024-03-10T14:27:18.553Z,9.83
2024-03-10T14:29:53.099Z,10.97
2024-03-10T14:32:27.625Z,10.70
2024-03-10T14:35:01.725Z,12.37
2024-03-10T14:37:36.095Z,14.00
2024-03-10T14:40:19.520Z,15.03
2024-03-10T14:42:56.471Z,11.30
2024-03-10T14:45:31.376Z,10.97
2024-03-10T14:48:05.554Z,12.47
2024-03-10T14:50:40.218Z,11.87
2024-03-10T14:53:14.179Z,11.90
2024-03-10T14:55:49.084Z,11.50
2024-03-10T14:58:25.003Z,12.80
2024-03-10T15:01:03.412Z,11.60
2024-03-10T15:03:37.646Z,12.13
2024-03-10T15:06:13.821Z,11.40
2024-03-10T15:08:48.234Z,12.17
2024-03-10T15:11:22.922Z,15.17
2024-03-10T15:13:57.102Z,17.33
2024-03-10T15:16:31.822Z,16.77
2024-03-10T15:19:07.713Z,12.93
2024-03-10T15:21:42.910Z,13.10
2024-03-10T15:24:17.506Z,11.60
2024-03-10T15:26:52.460Z,11.87
2024-03-10T15:29:27.214Z,13.17
2024-03-10T15:32:01.551Z,12.63
2024-03-10T15:34:35.170Z,13.67
2024-03-10T15:37:11.640Z,13.30
2024-03-10T15:39:48.114Z,14.80
2024-03-10T15:42:24.249Z,12.23
2024-03-10T15:44:59.882Z,14.43
2024-03-10T15:47:40.783Z,12.33
2024-03-10T15:50:20.105Z,12.37
2024-03-10T15:52:56.520Z,12.97
2024-03-10T15:55:33.758Z,14.13
2024-03-10T15:58:14.996Z,15.77
2024-03-10T16:00:54.373Z,15.73
2024-03-10T16:03:35.157Z,18.33
2024-03-10T16:12:57.322Z,20.67
2024-03-10T16:15:35.048Z,16.63
2024-03-10T16:18:11.781Z,20.43
2024-03-10T16:20:49.646Z,36.23
2024-03-10T16:23:26.588Z,18.37
2024-03-10T16:26:00.499Z,15.27
2024-03-10T16:28:35.422Z,17.47
2024-03-10T16:31:11.569Z,27.67
2024-03-10T16:33:46.921Z,22.20
2024-03-10T16:36:21.175Z,26.33
2024-03-10T16:38:58.936Z,31.20
2024-03-10T16:41:36.246Z,32.97
2024-03-10T16:44:11.315Z,33.63
2024-03-10T16:46:45.997Z,32.80
2024-03-10T16:49:21.594Z,25.97
2024-03-10T16:51:55.948Z,38.10
2024-03-10T16:54:30.313Z,27.40
2024-03-10T16:57:07.681Z,22.90
2024-03-10T16:59:43.610Z,26.67
2024-03-10T17:02:18.091Z,24.87
2024-03-10T17:04:51.490Z,20.97
2024-03-10T17:07:26.940Z,23.93
2024-03-10T17:10:04.242Z,23.83
2024-03-10T17:12:42.176Z,28.87
2024-03-10T17:15:19.000Z,24.40
2024-03-10T17:17:53.673Z,23.90
2024-03-10T17:20:27.807Z,26.20
2024-03-10T17:23:02.552Z,25.93
2024-03-10T17:25:38.764Z,29.60
2024-03-10T17:28:18.015Z,20.60
2024-03-10T17:30:52.337Z,32.90
2024-03-10T17:33:27.490Z,22.70
2024-03-10T17:36:01.773Z,24.20
2024-03-10T17:38:36.075Z,27.43
2024-03-10T17:41:10.644Z,26.77
2024-03-10T17:43:48.974Z,24.53
2024-03-10T17:46:23.159Z,28.97
2024-03-10T17:48:57.489Z,31.10
2024-03-10T17:51:31.213Z,35.00
2024-03-10T17:54:06.783Z,38.67
2024-03-10T17:56:41.764Z,44.63
2024-03-10T17:59:15.929Z,57.17
2024-03-10T18:01:50.018Z,56.30
2024-03-10T18:04:25.765Z,58.37
2024-03-10T18:07:00.419Z,46.13
2024-03-10T18:09:34.430Z,39.17
2024-03-10T18:12:10.247Z,40.17
2024-03-10T18:14:44.568Z,38.43
2024-03-10T18:17:20.906Z,35.37
2024-03-10T18:19:55.034Z,37.20
2024-03-10T18:22:31.283Z,34.60
2024-03-10T18:25:05.558Z,34.60
2024-03-10T18:27:40.368Z,39.90
2024-03-10T18:30:19.354Z,41.13
2024-03-10T18:32:54.199Z,39.60
2024-03-10T18:35:28.570Z,47.93
2024-03-10T18:38:02.713Z,45.73
2024-03-10T18:40:38.265Z,51.00
2024-03-10T18:43:13.416Z,48.97
2024-03-10T18:45:48.722Z,51.80
2024-03-10T18:48:24.230Z,53.37
2024-03-10T18:51:02.437Z,58.10
2024-03-10T18:53:41.963Z,52.70
2024-03-10T18:56:17.097Z,57.60
2024-03-10T18:58:52.283Z,56.07
2024-03-10T19:01:26.209Z,67.17
2024-03-10T19:04:00.921Z,67.47
2024-03-10T19:06:34.839Z,71.47
2024-03-10T19:09:12.409Z,69.67
2024-03-10T19:11:48.744Z,74.63
2024-03-10T19:14:24.509Z,80.47
2024-03-10T19:16:59.652Z,83.83
2024-03-10T19:19:35.903Z,89.03
2024-03-10T19:22:10.362Z,88.53
2024-03-10T19:24:44.624Z,95.70
2024-03-10T19:27:19.056Z,84.13
2024-03-10T19:29:54.515Z,82.23
2024-03-10T19:32:29.348Z,77.40
2024-03-10T19:35:03.192Z,79.63
2024-03-10T19:37:37.681Z,77.10
2024-03-10T19:40:19.693Z,76.53
2024-03-10T19:42:55.995Z,73.23
2024-03-10T19:45:30.614Z,76.70
2024-03-10T19:48:05.419Z,74.23
2024-03-10T19:50:39.205Z,77.13
2024-03-10T19:53:13.915Z,79.00
2024-03-10T19:55:48.329Z,72.77
2024-03-10T19:58:23.179Z,73.73
2024-03-10T20:01:00.016Z,69.10
2024-03-10T20:03:33.722Z,70.13
2024-03-10T20:06:10.824Z,67.83
2024-03-10T20:08:45.920Z,69.87
2024-03-10T20:11:20.311Z,69.30
2024-03-10T20:13:55.466Z,71.53
2024-03-10T20:16:29.826Z,65.43
2024-03-10T20:19:06.610Z,71.43
2024-03-10T20:21:40.702Z,68.00
2024-03-10T20:24:16.209Z,67.23
2024-03-10T20:26:52.370Z,69.97
2024-03-10T20:29:27.675Z,70.33
2024-03-10T20:32:02.576Z,66.20
2024-03-10T20:34:37.266Z,66.03
2024-03-10T20:37:11.256Z,72.17
2024-03-10T20:39:46.509Z,66.13
2024-03-10T20:42:21.393Z,61.50
2024-03-10T20:44:55.223Z,64.47
2024-03-10T20:47:29.680Z,61.07
2024-03-10T20:50:04.085Z,65.33
2024-03-10T20:52:38.481Z,63.00
2024-03-10T20:55:13.406Z,62.40
2024-03-10T20:57:47.918Z,54.67
2024-03-10T21:00:24.246Z,50.50
2024-03-10T21:03:00.212Z,52.13
2024-03-10T21:05:36.216Z,48.63
2024-03-10T21:08:12.733Z,50.63
2024-03-10T21:10:47.394Z,50.80
2024-03-10T21:13:21.705Z,46.33
2024-03-10T21:15:56.484Z,45.80
2024-03-10T21:18:30.620Z,48.67
2024-03-10T21:21:06.453Z,51.00
2024-03-10T21:23:40.977Z,47.37
2024-03-10T21:26:15.001Z,45.17
2024-03-10T21:28:49.745Z,44.03
2024-03-10T21:31:24.001Z,43.53
2024-03-10T21:33:58.161Z,43.33
2024-03-10T21:36:32.776Z,37.20
2024-03-10T21:39:06.904Z,38.13
2024-03-10T21:41:41.029Z,40.07
2024-03-10T21:44:15.249Z,35.83
2024-03-10T21:46:50.523Z,35.67
2024-03-10T21:49:24.654Z,33.10
2024-03-10T21:51:59.516Z,33.93
2024-03-10T21:54:33.982Z,34.70
2024-03-10T21:57:08.411Z,38.57
2024-03-10T21:59:43.648Z,34.80
2024-03-10T22:02:19.436Z,38.10
2024-03-10T22:04:54.570Z,37.67
2024-03-10T22:07:28.528Z,41.60
2024-03-10T22:10:02.639Z,38.33
2024-03-10T22:12:37.244Z,40.90
2024-03-10T22:15:17.758Z,39.83
2024-03-10T22:17:55.637Z,40.00
2024-03-10T22:20:31.688Z,36.50
2024-03-10T22:23:07.027Z,38.17
2024-03-10T22:25:41.826Z,38.03
2024-03-10T22:28:15.566Z,40.40
2024-03-10T22:30:50.487Z,42.50
2024-03-10T22:33:24.932Z,49.27
2024-03-10T22:36:00.912Z,40.70
2024-03-10T22:38:35.519Z,43.77
2024-03-10T22:41:11.263Z,39.57
2024-03-10T22:43:46.824Z,40.10
2024-03-10T22:46:22.094Z,40.53
2024-03-10T22:48:56.640Z,42.80
2024-03-10T22:51:32.627Z,41.87
2024-03-10T22:54:10.025Z,38.23
2024-03-10T22:56:43.939Z,38.87
2024-03-10T22:59:19.821Z,36.87
2024-03-10T23:01:54.551Z,37.97
2024-03-10T23:04:29.020Z,40.53
2024-03-10T23:07:05.367Z,39.80
2024-03-10T23:09:39.973Z,40.47
2024-03-10T23:12:14.471Z,42.47
2024-03-10T23:14:48.934Z,39.23
2024-03-10T23:17:23.437Z,41.07
2024-03-10T23:19:57.736Z,41.23
2024-03-10T23:22:32.402Z,37.90
2024-03-10T23:25:07.202Z,41.87
2024-03-10T23:27:41.554Z,41.23
2024-03-10T23:30:18.933Z,43.33
2024-03-10T23:32:54.796Z,42.03
2024-03-10T23:35:29.634Z,40.63
2024-03-10T23:38:05.519Z,42.33
2024-03-10T23:40:41.095Z,41.90
2024-03-10T23:43:15.302Z,41.50
2024-03-10T23:45:50.172Z,39.10
2024-03-10T23:48:24.087Z,37.77
2024-03-10T23:50:58.649Z,42.47
2024-03-10T23:53:34.551Z,44.43
2024-03-10T23:56:10.197Z,39.00
2024-03-10T23:58:47.072Z,37.67
